Time;durP1;ratioP1;P1;durP2;ratioP2;P2;SDS_P1;SDS_P2;PMS_P1;PMS_P2;Temp;Humidity;BMP_temperature;BMP_pressure;BME280_temperature;BME280_humidity;BME280_pressure;Samples;Min_cycle;Max_cycle;Signal;HPM_P1;HPM_P2
2022/04/21 00:00:53;;;;;;;50.12;30.48;;;;;;;1.20;87.93;97683.44;1746681;82;21001;-57
2022/04/21 00:03:19;;;;;;;51.98;27.90;;;;;;;1.15;85.67;97681.98;1747321;82;21517;-57
2022/04/21 00:05:45;;;;;;;57.50;31.65;;;;;;;1.07;85.01;97681.78;1747171;82;21008;-57
2022/04/21 00:08:12;;;;;;;55.55;31.17;;;;;;;1.01;85.50;97680.83;1747286;82;20890;-57
2022/04/21 00:10:38;;;;;;;56.10;31.17;;;;;;;1.01;85.28;97676.83;1747330;82;21310;-57
2022/04/21 00:13:05;;;;;;;55.75;27.37;;;;;;;0.98;86.50;97677.81;1747058;82;21504;-57
2022/04/21 00:15:31;;;;;;;56.92;30.20;;;;;;;0.92;85.96;97681.38;1747155;82;21726;-57
2022/04/21 00:17:59;;;;;;;59.55;29.55;;;;;;;0.88;86.60;97683.70;1747307;82;20857;-57
2022/04/21 00:20:24;;;;;;;55.65;30.52;;;;;;;0.80;86.26;97685.34;1747367;82;21001;-57
2022/04/21 00:25:35;;;;;;;60.25;30.70;;;;;;;0.66;88.52;97687.34;1742374;82;21004;-57
2022/04/21 00:28:01;;;;;;;57.35;31.23;;;;;;;0.60;89.53;97682.93;1737880;82;22391;-57
2022/04/21 00:30:27;;;;;;;50.23;28.80;;;;;;;0.59;89.11;97679.95;1739287;82;20940;-57
2022/04/21 00:32:53;;;;;;;50.52;28.55;;;;;;;0.59;88.27;97677.27;1746901;82;20909;-57
2022/04/21 00:35:19;;;;;;;49.98;29.05;;;;;;;0.53;88.20;97670.20;1747021;82;21072;-57
2022/04/21 00:37:56;;;;;;;72.45;39.35;;;;;;;0.50;87.77;97675.95;1747136;82;20917;-57
2022/04/21 00:40:26;;;;;;;59.25;32.95;;;;;;;0.48;89.23;97677.52;1746928;82;22209;-57
2022/04/21 00:42:53;;;;;;;53.40;29.00;;;;;;;0.44;90.02;97684.87;1746761;82;21016;-57
2022/04/21 00:45:20;;;;;;;59.93;30.85;;;;;;;0.39;90.11;97686.04;1747030;82;21001;-57
2022/04/21 00:47:46;;;;;;;49.90;27.35;;;;;;;0.36;89.51;97687.31;1747417;82;21009;-57
2022/04/21 00:50:22;;;;;;;47.62;27.50;;;;;;;0.33;88.53;97687.73;1747108;82;21033;-57
2022/04/21 00:52:48;;;;;;;50.20;28.05;;;;;;;0.27;86.79;97689.45;1747187;82;21044;-57
2022/04/21 00:55:14;;;;;;;61.02;32.28;;;;;;;0.21;86.06;97690.33;1740384;82;21500;-57
2022/04/21 00:57:41;;;;;;;55.28;32.17;;;;;;;0.17;86.95;97696.31;1733872;82;20999;-56
2022/04/21 01:00:09;;;;;;;61.42;33.95;;;;;;;0.15;87.33;97690.39;1729619;82;21075;-57
2022/04/21 01:02:49;;;;;;;54.10;29.45;;;;;;;0.15;88.51;97694.39;1731463;82;21454;-56
2022/04/21 01:05:33;;;;;;;51.10;29.92;;;;;;;0.10;88.80;97702.25;1746462;82;22412;-57
2022/04/21 01:08:04;;;;;;;52.67;25.27;;;;;;;0.04;91.23;97707.12;1746919;82;21119;-57
2022/04/21 01:10:32;;;;;;;52.35;31.10;;;;;;;0.06;87.91;97707.70;1747420;82;21028;-57
2022/04/21 01:13:04;;;;;;;59.35;34.15;;;;;;;-0.01;89.84;97695.26;1747008;82;21100;-57
2022/04/21 01:15:29;;;;;;;58.08;33.25;;;;;;;0.01;91.34;97701.72;1747320;82;21048;-57
2022/04/21 01:17:55;;;;;;;58.20;32.83;;;;;;;0.03;91.75;97710.82;1747370;82;22107;-57
2022/04/21 01:20:22;;;;;;;55.55;31.07;;;;;;;0.05;90.96;97706.89;1746941;82;21044;-57
2022/04/21 01:22:48;;;;;;;53.33;32.53;;;;;;;0.03;91.93;97705.49;1747317;81;21481;-57
2022/04/21 01:25:14;;;;;;;55.88;28.95;;;;;;;0.02;91.38;97702.53;1738015;81;20992;-57
2022/04/21 01:27:41;;;;;;;52.33;28.38;;;;;;;-0.01;91.26;97700.58;1729936;82;21015;-57
2022/04/21 01:30:08;;;;;;;50.92;27.80;;;;;;;-0.03;89.34;97705.84;1729749;82;21441;-57
2022/04/21 01:32:39;;;;;;;66.72;32.65;;;;;;;-0.12;90.09;97705.31;1729894;82;21008;-57
2022/04/21 01:35:07;;;;;;;59.63;34.48;;;;;;;-0.11;89.83;97704.79;1725875;82;21000;-57
2022/04/21 01:43:02;;;;;;;53.42;30.35;;;;;;;-0.10;90.83;97707.75;1711401;82;21480;-57
2022/04/21 01:45:28;;;;;;;46.80;27.73;;;;;;;-0.14;90.12;97704.72;1729913;82;20987;-57
2022/04/21 01:47:56;;;;;;;44.75;25.60;;;;;;;-0.17;88.47;97707.83;1729875;82;21039;-57
2022/04/21 01:50:25;;;;;;;48.17;27.73;;;;;;;-0.20;88.16;97705.59;1729941;82;20992;-57
2022/04/21 01:52:52;;;;;;;54.38;29.25;;;;;;;-0.26;87.43;97709.11;1733312;82;21429;-57
2022/04/21 01:55:18;;;;;;;55.25;28.05;;;;;;;-0.31;87.47;97707.64;1746920;82;21442;-57
2022/04/21 01:57:44;;;;;;;61.42;31.52;;;;;;;-0.32;87.89;97709.48;1746946;82;21596;-57
2022/04/21 02:00:11;;;;;;;52.60;28.85;;;;;;;-0.26;87.73;97706.97;1747074;82;20920;-57
2022/04/21 02:02:37;;;;;;;54.90;29.98;;;;;;;-0.27;88.55;97703.48;1747287;82;21544;-57
2022/04/21 02:05:04;;;;;;;56.15;29.77;;;;;;;-0.24;87.86;97700.93;1746838;82;20977;-57
2022/04/21 02:07:30;;;;;;;48.20;29.70;;;;;;;-0.17;88.08;97702.99;1747156;82;22051;-57
2022/04/21 02:09:56;;;;;;;48.05;27.48;;;;;;;-0.15;90.02;97703.61;1746913;82;20866;-57
2022/04/21 02:12:23;;;;;;;66.60;33.58;;;;;;;-0.17;91.16;97703.84;1747206;82;20996;-57
2022/04/21 02:14:50;;;;;;;55.83;30.20;;;;;;;-0.13;91.95;97701.02;1746857;82;21421;-57
2022/04/21 02:17:15;;;;;;;48.17;28.27;;;;;;;-0.09;90.99;97696.87;1738151;82;20984;-57
2022/04/21 02:19:42;;;;;;;42.25;26.20;;;;;;;-0.04;90.56;97693.05;1735136;81;21118;-57
2022/04/21 02:22:08;;;;;;;63.78;33.80;;;;;;;-0.03;90.47;97689.34;1747241;81;21052;-57
2022/04/21 02:24:34;;;;;;;56.90;33.02;;;;;;;-0.05;90.12;97682.61;1747331;82;20941;-57
2022/04/21 02:26:59;;;;;;;62.65;33.98;;;;;;;-0.05;89.74;97683.95;1747340;82;20853;-57
2022/04/21 02:29:25;;;;;;;50.90;29.35;;;;;;;-0.05;90.53;97688.75;1747071;82;20984;-57
2022/04/21 02:31:51;;;;;;;51.08;29.42;;;;;;;-0.06;90.40;97687.12;1747145;82;21454;-57
2022/04/21 02:34:17;;;;;;;61.83;32.98;;;;;;;-0.07;89.22;97685.50;1747095;82;20861;-57
2022/04/21 02:36:43;;;;;;;73.62;30.97;;;;;;;-0.10;88.36;97684.59;1747288;82;20964;-57
2022/04/21 02:39:09;;;;;;;80.05;43.25;;;;;;;-0.07;88.27;97685.50;1747183;82;20965;-57
2022/04/21 02:41:35;;;;;;;54.85;30.25;;;;;;;-0.09;88.32;97683.55;1747260;82;20862;-57
2022/04/21 02:44:01;;;;;;;50.85;29.20;;;;;;;-0.08;88.64;97670.55;1747304;82;21016;-57
2022/04/21 02:46:30;;;;;;;58.23;30.35;;;;;;;-0.17;89.39;97681.20;1747065;82;21037;-57
2022/04/21 02:48:57;;;;;;;51.53;28.87;;;;;;;-0.18;88.75;97682.20;1746971;82;21012;-57
2022/04/21 02:51:22;;;;;;;48.17;28.87;;;;;;;-0.28;89.38;97681.89;1742694;82;21513;-57
2022/04/21 02:59:17;;;;;;;59.58;31.65;;;;;;;-0.32;90.97;97686.85;1729553;82;20911;-57
2022/04/21 03:01:43;;;;;;;52.60;31.50;;;;;;;-0.29;90.35;97690.92;1738206;82;20886;-57
2022/04/21 03:04:09;;;;;;;61.08;31.52;;;;;;;-0.30;91.57;97690.63;1747358;82;21487;-57
2022/04/21 03:06:35;;;;;;;52.40;29.52;;;;;;;-0.26;90.18;97694.98;1747175;82;20893;-57
2022/04/21 03:09:01;;;;;;;53.50;29.67;;;;;;;-0.32;90.98;97700.17;1747170;82;21527;-57
2022/04/21 03:11:27;;;;;;;49.05;27.13;;;;;;;-0.36;91.23;97706.94;1747197;82;20909;-57
2022/04/21 03:13:54;;;;;;;77.58;32.98;;;;;;;-0.38;89.39;97699.70;1747013;82;21016;-57
2022/04/21 03:16:20;;;;;;;136.72;50.12;;;;;;;-0.41;89.09;97691.34;1747352;82;21005;-57
2022/04/21 03:18:45;;;;;;;74.25;37.93;;;;;;;-0.41;89.30;97670.86;1747429;82;21012;-57
2022/04/21 03:26:40;;;;;;;75.57;36.33;;;;;;;-0.42;91.04;97677.73;1731589;82;21004;-57
2022/04/21 03:29:06;;;;;;;56.15;30.50;;;;;;;-0.41;91.00;97675.37;1747015;82;21453;-57
2022/04/21 03:31:32;;;;;;;74.47;37.63;;;;;;;-0.35;89.89;97667.81;1747499;82;20945;-57
2022/04/21 03:33:58;;;;;;;82.27;39.78;;;;;;;-0.35;89.59;97663.83;1747232;82;21004;-57
2022/04/21 03:36:24;;;;;;;66.20;36.15;;;;;;;-0.39;89.82;97674.11;1747240;82;20865;-57
2022/04/21 03:38:50;;;;;;;53.10;28.25;;;;;;;-0.41;90.74;97672.19;1739799;81;20955;-57
2022/04/21 03:41:16;;;;;;;58.70;31.45;;;;;;;-0.37;90.05;97668.05;1730166;82;20947;-57
2022/04/21 03:43:42;;;;;;;76.22;42.05;;;;;;;-0.34;89.84;97653.50;1729754;82;21024;-57
2022/04/21 03:46:08;;;;;;;69.12;38.02;;;;;;;-0.32;89.68;97647.43;1714097;82;22239;-57
2022/04/21 03:48:34;;;;;;;51.83;28.47;;;;;;;-0.27;90.46;97654.75;1738234;82;22508;-57
2022/04/21 03:50:59;;;;;;;55.33;27.90;;;;;;;-0.32;91.56;97656.75;1747555;82;20908;-57
2022/04/21 03:53:25;;;;;;;57.70;30.12;;;;;;;-0.32;90.47;97664.73;1747382;82;20948;-57
2022/04/21 03:55:51;;;;;;;64.00;31.50;;;;;;;-0.38;90.80;97665.08;1747390;82;21348;-57
2022/04/21 03:58:17;;;;;;;68.42;36.75;;;;;;;-0.36;90.74;97671.00;1742719;81;21556;-57
2022/04/21 04:00:43;;;;;;;54.55;31.50;;;;;;;-0.35;91.13;97661.98;1725521;82;21000;-57
2022/04/21 04:03:09;;;;;;;57.58;32.00;;;;;;;-0.32;91.29;97656.23;1722616;82;20936;-57
2022/04/21 04:05:35;;;;;;;53.58;29.25;;;;;;;-0.27;91.53;97664.06;1727738;82;20856;-57
2022/04/21 04:10:52;;;;;;;58.20;34.85;;;;;;;-0.24;89.91;97663.13;1747209;82;21499;-57
2022/04/21 04:13:22;;;;;;;54.18;31.87;;;;;;;-0.23;90.47;97670.59;1747411;82;21170;-56
2022/04/21 04:15:49;;;;;;;56.25;30.77;;;;;;;-0.19;90.59;97678.44;1746801;82;21072;-57
2022/04/21 04:18:16;;;;;;;50.95;30.35;;;;;;;-0.17;90.64;97675.03;1747567;82;20981;-57
2022/04/21 04:20:43;;;;;;;52.60;29.00;;;;;;;-0.15;90.32;97681.78;1747238;82;21013;-57
2022/04/21 04:23:09;;;;;;;59.75;30.88;;;;;;;-0.07;90.09;97687.35;1747430;82;21557;-57
2022/04/21 04:25:35;;;;;;;46.42;28.40;;;;;;;-0.02;89.43;97692.30;1735739;82;20868;-57
2022/04/21 04:28:05;;;;;;;51.15;28.42;;;;;;;0.04;89.48;97695.12;1730128;82;21007;-57
2022/04/21 04:30:34;;;;;;;54.00;30.02;;;;;;;0.13;89.36;97693.28;1725053;82;21068;-57
2022/04/21 04:32:59;;;;;;;;;;;;;;;0.22;89.62;97696.47;1737245;82;21016;-57
2022/04/21 04:35:25;;;;;;;92.37;39.20;;;;;;;0.32;89.58;97698.10;1746735;82;21091;-57
2022/04/21 04:37:52;;;;;;;91.95;42.90;;;;;;;0.41;89.19;97692.77;1747464;82;21508;-57
2022/04/21 04:40:19;;;;;;;96.32;49.05;;;;;;;0.47;88.83;97689.74;1747295;82;21584;-57
2022/04/21 04:42:45;;;;;;;78.87;43.70;;;;;;;0.53;88.49;97683.52;1747617;82;21060;-57
2022/04/21 04:47:55;;;;;;;52.78;31.60;;;;;;;0.55;88.97;97695.59;1729880;82;22195;-57
2022/04/21 04:50:22;;;;;;;66.95;34.13;;;;;;;0.56;88.96;97697.73;1729973;82;20919;-57
2022/04/21 04:52:48;;;;;;;78.33;37.50;;;;;;;0.62;88.65;97689.38;1730238;82;20979;-57
2022/04/21 04:55:14;;;;;;;66.00;37.45;;;;;;;0.70;88.17;97689.06;1728897;82;20850;-57
2022/04/21 04:57:40;;;;;;;77.53;39.35;;;;;;;0.67;88.11;97693.50;1743053;82;21520;-57
2022/04/21 05:00:11;;;;;;;83.55;38.02;;;;;;;0.70;88.10;97698.40;1746957;82;21457;-57
2022/04/21 05:02:37;;;;;;;69.45;35.45;;;;;;;0.71;88.05;97691.50;1747222;82;21614;-58
2022/04/21 05:05:05;;;;;;;64.35;34.83;;;;;;;0.74;87.91;97690.23;1747122;82;20893;-57
2022/04/21 05:07:30;;;;;;;60.50;33.83;;;;;;;0.72;87.94;97690.98;1745955;82;21001;-57
2022/04/21 05:09:56;;;;;;;63.90;33.92;;;;;;;0.75;88.61;97695.33;1729836;82;20903;-57
2022/04/21 05:12:22;;;;;;;66.17;29.90;;;;;;;0.84;87.95;97699.31;1730048;82;21472;-57
2022/04/21 05:14:52;;;;;;;66.37;29.55;;;;;;;0.92;87.70;97698.20;1731265;82;20936;-57
2022/04/21 05:17:18;;;;;;;42.23;24.25;;;;;;;0.89;87.52;97697.84;1731405;82;21003;-57
2022/04/21 05:19:45;;;;;;;64.32;36.50;;;;;;;0.87;87.33;97695.93;1746802;82;21073;-57
2022/04/21 05:22:13;;;;;;;60.95;32.08;;;;;;;0.82;87.55;97690.73;1747593;82;21428;-57
2022/04/21 05:24:39;;;;;;;58.83;30.43;;;;;;;0.89;87.55;97689.84;1734752;81;21132;-57
2022/04/21 05:27:06;;;;;;;64.12;34.25;;;;;;;0.99;87.47;97690.92;1726792;82;21004;-57
2022/04/21 05:32:18;;;;;;;62.27;32.73;;;;;;;1.13;87.28;97687.56;1739287;82;21016;-57
2022/04/21 05:34:45;;;;;;;60.60;35.20;;;;;;;1.24;87.13;97688.62;1747369;82;20890;-57
2022/04/21 05:37:13;;;;;;;61.30;34.35;;;;;;;1.35;86.92;97687.84;1747386;82;21154;-57
2022/04/21 05:39:40;;;;;;;51.48;28.50;;;;;;;1.40;86.71;97702.14;1736931;82;20996;-57
2022/04/21 05:42:09;;;;;;;55.40;30.15;;;;;;;1.49;86.43;97697.80;1742303;82;21480;-57
2022/04/21 05:44:36;;;;;;;50.85;29.10;;;;;;;1.53;86.14;97693.09;1743997;82;21000;-57
2022/04/21 05:47:03;;;;;;;56.15;31.42;;;;;;;1.56;86.12;97698.00;1743233;82;22029;-57
2022/04/21 05:49:30;;;;;;;65.52;35.73;;;;;;;1.68;85.89;97696.14;1729673;82;21526;-57
2022/04/21 05:51:57;;;;;;;78.00;43.78;;;;;;;1.76;85.80;97694.19;1725432;82;21024;-57
2022/04/21 05:54:23;;;;;;;78.45;43.73;;;;;;;1.84;85.34;97695.98;1744165;82;21032;-57
2022/04/21 05:56:50;;;;;;;71.30;39.50;;;;;;;1.97;85.38;97690.95;1726433;82;21437;-58
2022/04/21 05:59:16;;;;;;;80.35;44.73;;;;;;;2.12;85.23;97688.61;1730047;82;21456;-57
2022/04/21 06:01:42;;;;;;;64.55;37.05;;;;;;;2.21;85.03;97691.73;1731138;82;21067;-57
2022/04/21 06:04:07;;;;;;;77.32;36.88;;;;;;;2.31;84.90;97694.66;1741035;82;20932;-57
2022/04/21 06:06:33;;;;;;;70.35;38.78;;;;;;;2.40;84.76;97699.13;1736141;82;21035;-57
2022/04/21 06:09:00;;;;;;;71.62;39.65;;;;;;;2.44;84.67;97694.39;1718609;81;21017;-57
2022/04/21 06:11:27;;;;;;;77.30;41.48;;;;;;;2.54;84.55;97691.92;1754617;81;21012;-57
2022/04/21 06:13:53;;;;;;;69.65;35.20;;;;;;;2.65;84.27;97688.95;1730797;82;22399;-59
2022/04/21 06:16:19;;;;;;;77.67;39.20;;;;;;;2.77;84.57;97690.25;1729636;81;20878;-57
2022/04/21 06:18:45;;;;;;;55.95;32.33;;;;;;;2.92;84.20;97693.76;1724323;82;22421;-57
2022/04/21 06:21:11;;;;;;;80.28;47.15;;;;;;;3.05;83.39;97694.27;1735564;81;20909;-57
2022/04/21 06:23:37;;;;;;;75.17;34.75;;;;;;;3.19;83.04;97693.98;1731154;81;21734;-57
2022/04/21 06:26:04;;;;;;;79.37;39.00;;;;;;;3.38;82.55;97698.08;1730252;81;21532;-57
2022/04/21 06:28:30;;;;;;;85.42;43.10;;;;;;;3.59;82.80;97687.17;1730104;82;21063;-57
2022/04/21 06:30:56;;;;;;;68.25;35.48;;;;;;;3.88;82.04;97687.39;1736364;82;22465;-57
2022/04/21 06:33:22;;;;;;;64.17;39.18;;;;;;;4.17;81.65;97681.38;1718635;82;20893;-57
2022/04/21 06:35:48;;;;;;;59.98;35.63;;;;;;;4.39;81.30;97688.66;1733094;82;21575;-57
2022/04/21 06:38:14;;;;;;;56.05;33.92;;;;;;;4.63;80.52;97678.52;1734835;82;22234;-57
2022/04/21 06:40:40;;;;;;;56.42;34.18;;;;;;;4.73;79.81;97683.47;1746288;82;21008;-57
2022/04/21 06:48:39;;;;;;;53.98;31.70;;;;;;;5.13;79.04;97678.30;1739133;82;21001;-57
2022/04/21 06:51:05;;;;;;;70.30;37.95;;;;;;;5.18;78.91;97681.02;1738555;81;22126;-57
2022/04/21 06:53:31;;;;;;;49.23;31.85;;;;;;;5.18;78.02;97680.20;1737285;81;20965;-57
2022/04/21 06:55:57;;;;;;;66.85;38.73;;;;;;;5.25;77.89;97677.59;1729952;81;21084;-58
2022/04/21 06:58:23;;;;;;;72.53;38.55;;;;;;;5.43;78.07;97673.73;1744886;80;20941;-58
2022/04/21 07:00:49;;;;;;;71.28;35.43;;;;;;;5.81;77.79;97677.27;1741011;81;20866;-58
2022/04/21 07:03:15;;;;;;;43.85;28.23;;;;;;;6.12;77.20;97677.00;1730438;81;21222;-58
2022/04/21 07:05:41;;;;;;;40.85;26.95;;;;;;;6.28;76.82;97677.91;1721325;81;21112;-57
2022/04/21 07:08:07;;;;;;;55.63;30.40;;;;;;;6.57;76.54;97671.06;1745155;80;20905;-57
2022/04/21 07:10:34;;;;;;;51.63;30.95;;;;;;;6.84;75.75;97662.84;1744856;81;22617;-57
2022/04/21 07:13:11;;;;;;;45.90;29.07;;;;;;;7.40;75.53;97664.86;1745285;80;21111;-58
2022/04/21 07:15:38;;;;;;;36.10;24.90;;;;;;;7.99;72.37;97667.84;1736061;81;21797;-57
2022/04/21 07:18:04;;;;;;;34.92;25.35;;;;;;;8.72;70.81;97657.45;1744240;81;21095;-58
2022/04/21 07:20:30;;;;;;;37.50;26.87;;;;;;;9.15;71.14;97660.50;1731753;81;20963;-58
2022/04/21 07:22:56;;;;;;;39.63;24.32;;;;;;;9.25;69.72;97662.33;1744499;81;21580;-58
2022/04/21 07:25:22;;;;;;;33.98;24.43;;;;;;;9.41;69.94;97655.74;1736868;81;20889;-58
2022/04/21 07:27:47;;;;;;;29.70;19.25;;;;;;;9.46;68.12;97657.04;1741384;81;21145;-58
2022/04/21 07:30:14;;;;;;;33.25;22.62;;;;;;;9.52;66.92;97661.87;1742985;80;22341;-58
2022/04/21 07:32:40;;;;;;;33.75;21.17;;;;;;;9.42;66.08;97654.65;1751331;80;20956;-58
2022/04/21 07:35:07;;;;;;;39.05;24.10;;;;;;;9.38;66.68;97660.34;1730836;81;20914;-58
2022/04/21 07:37:36;;;;;;;29.27;19.50;;;;;;;9.77;66.54;97660.34;1738364;81;21017;-58
2022/04/21 07:40:00;;;;;;;38.60;24.63;;;;;;;9.97;64.42;97662.05;1737238;81;21878;-58
2022/04/21 07:42:27;;;;;;;34.27;21.05;;;;;;;10.24;64.74;97660.76;1742421;81;21492;-58
2022/04/21 07:44:53;;;;;;;33.63;22.77;;;;;;;10.17;64.38;97661.09;1732813;80;21011;-58
2022/04/21 07:47:19;;;;;;;29.63;19.15;;;;;;;10.17;62.73;97659.19;1746872;81;20901;-58
2022/04/21 07:49:45;;;;;;;33.50;20.12;;;;;;;10.04;63.03;97659.84;1744285;81;20887;-58
2022/04/21 07:55:23;;;;;;;31.00;19.65;;;;;;;9.88;62.61;97659.70;1727082;81;38395;-57
2022/04/21 07:57:49;;;;;;;27.22;17.10;;;;;;;9.70;62.72;97668.52;1741999;81;21481;-57
2022/04/21 08:00:17;;;;;;;24.10;16.90;;;;;;;9.74;62.40;97664.14;1748174;81;21135;-58
2022/04/21 08:02:44;;;;;;;26.45;17.45;;;;;;;9.68;62.45;97666.09;1757053;80;21006;-57
2022/04/21 08:05:12;;;;;;;20.60;15.10;;;;;;;9.76;61.34;97669.55;1736218;80;21099;-57
2022/04/21 08:07:38;;;;;;;22.50;14.30;;;;;;;9.66;62.20;97669.63;1734475;81;21167;-58
2022/04/21 08:10:05;;;;;;;34.53;16.87;;;;;;;9.67;62.11;97664.48;1730227;81;20964;-58
2022/04/21 08:12:42;;;;;;;36.63;20.75;;;;;;;9.82;61.51;97665.69;1725872;82;21100;-57
2022/04/21 08:15:10;;;;;;;21.65;15.38;;;;;;;9.89;60.46;97664.83;1757343;80;21012;-58
2022/04/21 08:17:36;;;;;;;23.70;19.60;;;;;;;9.97;59.40;97660.70;1740987;81;21093;-58
2022/04/21 08:20:08;;;;;;;27.02;16.42;;;;;;;9.84;59.35;97669.49;1760215;80;21033;-57
2022/04/21 08:22:34;;;;;;;29.05;18.05;;;;;;;10.08;60.12;97654.64;1753726;80;21030;-57
2022/04/21 08:33:15;;;;;;;19.27;14.00;;;;;;;10.62;58.98;97648.18;1745950;80;21437;-57
2022/04/21 08:35:41;;;;;;;24.82;15.72;;;;;;;10.76;58.76;97642.30;1735582;81;21007;-57
2022/04/21 08:38:10;;;;;;;22.60;14.43;;;;;;;11.13;56.44;97632.63;1736891;80;21017;-58
2022/04/21 08:40:37;;;;;;;21.12;14.15;;;;;;;10.95;54.12;97636.94;1737953;80;26895;-57
2022/04/21 08:43:12;;;;;;;19.85;14.50;;;;;;;11.00;56.08;97644.44;1729662;82;21114;-58
2022/04/21 08:45:40;;;;;;;23.47;16.60;;;;;;;11.06;56.34;97643.83;1737444;80;20989;-58
2022/04/21 08:48:07;;;;;;;23.32;15.18;;;;;;;11.00;54.32;97637.66;1745059;81;21092;-57
2022/04/21 08:50:33;;;;;;;22.90;14.05;;;;;;;11.19;55.37;97643.64;1738235;80;21055;-57
2022/04/21 08:52:59;;;;;;;19.17;14.30;;;;;;;10.95;52.11;97647.23;1732593;80;21020;-58
2022/04/21 08:55:25;;;;;;;23.40;15.28;;;;;;;11.06;54.67;97640.31;1751493;79;21310;-57
2022/04/21 08:57:53;;;;;;;15.25;12.95;;;;;;;11.16;54.74;97637.45;1742865;80;20943;-57
2022/04/21 09:00:19;;;;;;;18.00;13.48;;;;;;;11.11;52.89;97636.16;1738587;80;21049;-58
2022/04/21 09:02:47;;;;;;;22.98;14.33;;;;;;;11.28;55.06;97637.84;1743778;80;21024;-58
2022/04/21 09:05:12;;;;;;;18.98;13.53;;;;;;;11.31;52.69;97639.95;1741239;81;21076;-58
2022/04/21 09:07:52;;;;;;;22.27;13.62;;;;;;;11.11;51.16;97642.94;1740161;80;21158;-58
2022/04/21 09:10:19;;;;;;;20.25;13.22;;;;;;;11.37;53.22;97643.42;1739595;79;21070;-58
2022/04/21 09:12:55;;;;;;;23.57;16.73;;;;;;;11.19;50.54;97639.02;1740764;80;21043;-57
2022/04/21 09:15:24;;;;;;;21.57;14.65;;;;;;;11.72;52.75;97634.73;1728702;80;21067;-58
2022/04/21 09:17:53;;;;;;;18.62;13.58;;;;;;;11.93;51.18;97633.86;1734650;80;21060;-58
2022/04/21 09:20:33;;;;;;;15.83;12.80;;;;;;;12.68;52.37;97633.55;1737755;80;21176;-58
2022/04/21 09:23:01;;;;;;;15.20;12.75;;;;;;;13.57;51.91;97628.67;1734933;79;20985;-58
2022/04/21 09:25:33;;;;;;;19.05;13.38;;;;;;;15.49;49.34;97625.91;1736090;80;21311;-58
2022/04/21 09:28:02;;;;;;;20.23;12.40;;;;;;;15.45;45.01;97625.72;1727805;81;21525;-58
2022/04/21 09:30:27;;;;;;;14.07;12.50;;;;;;;16.47;45.82;97625.68;1733664;82;21015;-58
2022/04/21 09:32:59;;;;;;;15.18;13.05;;;;;;;17.40;40.85;97620.05;1733257;81;21545;-58
2022/04/21 09:35:28;;;;;;;18.02;12.65;;;;;;;17.73;41.13;97613.86;1745459;80;21485;-58
2022/04/21 09:37:55;;;;;;;14.15;11.97;;;;;;;18.43;39.22;97609.26;1749033;80;20975;-58
2022/04/21 09:40:26;;;;;;;13.48;11.65;;;;;;;18.42;40.02;97613.14;1735744;81;21040;-58
2022/04/21 09:42:55;;;;;;;16.07;12.70;;;;;;;20.43;39.93;97601.51;1741464;81;21008;-58
2022/04/21 09:48:24;;;;;;;15.18;11.97;;;;;;;19.86;38.89;97594.48;1738373;81;21039;-58
2022/04/21 09:50:53;;;;;;;15.95;11.80;;;;;;;18.00;37.46;97603.67;1734441;81;21116;-58
2022/04/21 09:53:23;;;;;;;16.82;12.63;;;;;;;17.07;40.43;97602.72;1742720;80;21341;-58
2022/04/21 09:55:50;;;;;;;16.70;12.53;;;;;;;15.99;39.11;97595.36;1745992;80;21099;-57
2022/04/21 09:58:16;;;;;;;15.48;12.70;;;;;;;14.60;41.71;97596.59;1763432;80;21127;-58
2022/04/21 10:00:42;;;;;;;16.35;13.22;;;;;;;14.34;42.75;97603.28;1735775;81;21454;-58
2022/04/21 10:03:09;;;;;;;16.20;12.40;;;;;;;14.01;43.14;97600.62;1739725;81;21453;-58
2022/04/21 10:05:36;;;;;;;15.58;12.28;;;;;;;14.03;44.39;97600.58;1736502;80;21462;-57
2022/04/21 10:08:06;;;;;;;16.87;12.63;;;;;;;13.31;44.19;97600.69;1742688;81;21079;-58
2022/04/21 10:10:32;;;;;;;20.17;12.73;;;;;;;12.67;45.56;97595.81;1737404;80;21129;-57
2022/04/21 10:13:00;;;;;;;13.93;11.43;;;;;;;12.71;46.45;97596.80;1732119;80;20991;-58
2022/04/21 10:15:27;;;;;;;15.78;12.58;;;;;;;12.69;45.85;97586.23;1737905;80;21526;-57
2022/04/21 10:17:52;;;;;;;15.83;12.30;;;;;;;12.68;46.98;97583.27;1746840;81;21151;-57
2022/04/21 10:20:28;;;;;;;13.93;11.28;;;;;;;12.96;46.32;97581.86;1746163;80;20972;-58
2022/04/21 10:22:54;;;;;;;14.25;12.25;;;;;;;13.15;45.78;97586.59;1747832;80;21970;-57
2022/04/21 10:25:35;;;;;;;13.43;10.60;;;;;;;13.49;44.94;97580.66;1738516;80;20882;-57
2022/04/21 10:28:01;;;;;;;15.10;10.63;;;;;;;13.80;45.05;97576.64;1712577;82;21071;-58
2022/04/21 10:30:29;;;;;;;13.80;9.30;;;;;;;13.86;43.41;97570.52;1729203;80;20998;-58
2022/04/21 10:32:58;;;;;;;14.00;10.35;;;;;;;13.57;43.13;97578.31;1732496;80;21453;-58
2022/04/21 10:35:33;;;;;;;13.78;10.32;;;;;;;13.50;43.88;97567.85;1745488;80;21099;-58
2022/04/21 10:38:17;;;;;;;17.00;11.63;;;;;;;13.24;44.30;97573.93;1731411;80;21406;-57
2022/04/21 10:41:10;;;;;;;15.68;11.03;;;;;;;12.80;44.36;97568.34;1758001;80;21039;-58
2022/04/21 10:43:54;;;;;;;14.10;11.90;;;;;;;12.75;45.29;97578.79;1732797;81;21050;-59
2022/04/21 10:46:29;;;;;;;16.05;14.28;;;;;;;13.14;45.13;97584.19;1736312;81;22173;-58
2022/04/21 10:48:55;;;;;;;14.60;11.43;;;;;;;12.89;45.95;97578.75;1732244;81;21130;-58
2022/04/21 10:57:31;;;;;;;15.63;11.70;;;;;;;12.30;47.05;97584.02;1733144;81;21020;-58
2022/04/21 11:00:05;;;;;;;14.53;11.95;;;;;;;12.57;46.68;97575.08;1735978;81;21032;-58
2022/04/21 11:02:43;;;;;;;13.20;9.73;;;;;;;12.38;46.24;97577.08;1734603;81;21467;-58
2022/04/21 11:05:38;;;;;;;16.70;12.03;;;;;;;12.67;46.91;97572.15;1730877;80;21108;-57
2022/04/21 11:08:14;;;;;;;16.93;12.68;;;;;;;12.60;46.93;97572.30;1709746;82;21052;-58
2022/04/21 11:10:45;;;;;;;17.15;12.93;;;;;;;12.37;47.13;97584.98;1736620;81;21083;-58
2022/04/21 11:13:17;;;;;;;13.93;10.72;;;;;;;12.10;47.58;97581.69;1736901;81;21110;-57
2022/04/21 11:15:49;;;;;;;15.28;11.35;;;;;;;12.06;47.74;97586.93;1734751;81;21411;-58
2022/04/21 11:18:19;;;;;;;14.50;10.82;;;;;;;12.15;47.87;97581.61;1735527;80;21064;-58
2022/04/21 11:20:47;;;;;;;15.48;11.30;;;;;;;12.21;46.98;97572.23;1741908;81;21035;-58
2022/04/21 11:23:26;;;;;;;15.40;10.80;;;;;;;12.32;47.37;97575.03;1732935;81;21372;-58
2022/04/21 11:25:52;;;;;;;14.03;9.63;;;;;;;12.36;47.27;97573.31;1719308;82;21027;-58
2022/04/21 11:28:24;;;;;;;13.75;11.93;;;;;;;12.45;46.24;97576.13;1729108;81;21849;-58
2022/04/21 11:30:57;;;;;;;16.42;11.53;;;;;;;12.58;47.17;97579.97;1731957;81;22001;-57
2022/04/21 11:33:22;;;;;;;13.95;10.90;;;;;;;12.69;46.58;97578.08;1737112;81;21147;-57
2022/04/21 11:35:48;;;;;;;16.32;10.23;;;;;;;12.64;46.39;97576.81;1735672;81;20909;-58
2022/04/21 11:38:14;;;;;;;13.25;10.48;;;;;;;12.76;45.78;97579.59;1739037;80;20892;-58
2022/04/21 11:40:40;;;;;;;12.93;10.03;;;;;;;13.02;44.51;97577.92;1740721;81;21267;-58
2022/04/21 11:43:16;;;;;;;12.58;10.55;;;;;;;13.14;44.82;97573.30;1736731;81;21005;-58
2022/04/21 11:45:55;;;;;;;14.23;10.28;;;;;;;13.10;45.27;97573.12;1719291;82;21782;-58
2022/04/21 11:48:21;;;;;;;;;;;;;;;13.12;44.71;97569.53;1743465;80;20980;-58
2022/04/21 11:50:47;;;;;;;13.20;9.80;;;;;;;12.89;44.46;97565.95;1717380;80;20170;-57
2022/04/21 11:53:20;;;;;;;13.05;9.88;;;;;;;13.08;44.89;97550.88;1756332;80;21794;-58
2022/04/21 11:55:50;;;;;;;12.70;9.30;;;;;;;13.39;44.89;97553.70;1719718;81;21031;-58
2022/04/21 11:58:38;;;;;;;14.63;9.93;;;;;;;13.77;44.32;97563.66;1754744;80;21063;-58
2022/04/21 12:06:40;;;;;;;;;;;;;;;14.11;43.66;97564.96;1756875;80;21006;-58
2022/04/21 12:09:07;;;;;;;11.00;9.50;;;;;;;14.24;42.73;97551.78;1755636;80;20177;-58
2022/04/21 12:11:33;;;;;;;12.28;9.03;;;;;;;14.30;42.19;97555.98;1717890;83;21082;-58
2022/04/21 12:13:59;;;;;;;10.13;8.73;;;;;;;14.02;42.09;97555.95;1740537;81;21024;-58
2022/04/21 12:16:50;;;;;;;13.55;10.55;;;;;;;14.36;42.70;97552.01;1735228;80;21080;-58
2022/04/21 12:19:29;;;;;;;23.40;16.50;;;;;;;14.08;42.04;97554.11;1745566;81;21087;-58
2022/04/21 12:22:08;;;;;;;15.03;11.22;;;;;;;13.93;42.60;97550.98;1726232;80;20988;-58
2022/04/21 12:24:51;;;;;;;17.17;12.70;;;;;;;14.32;42.90;97542.03;1740280;79;21023;-58